createdAt,value
2019-03-06T00:01:23.509Z,67.40
2019-03-06T00:03:52.558Z,67.60
2019-03-06T00:06:21.935Z,67.50
2019-03-06T00:08:51.399Z,67.60
2019-03-06T00:11:20.476Z,67.50
2019-03-06T00:13:49.530Z,67.70
2019-03-06T00:16:18.586Z,67.60
2019-03-06T00:18:47.975Z,67.60
2019-03-06T00:21:17.104Z,68.40
2019-03-06T00:23:46.574Z,68.60
2019-03-06T00:26:15.956Z,68.60
2019-03-06T00:28:45.687Z,69.00
2019-03-06T00:31:14.766Z,69.30
2019-03-06T00:33:44.179Z,69.20
2019-03-06T00:36:19.904Z,69.90
2019-03-06T00:38:49.323Z,69.30
2019-03-06T00:41:36.912Z,69.70
2019-03-06T00:44:06.460Z,69.30
2019-03-06T00:46:35.511Z,69.30
2019-03-06T00:49:04.583Z,69.40
2019-03-06T00:51:33.925Z,69.60
2019-03-06T00:54:03.007Z,69.50
2019-03-06T00:56:32.061Z,70.70
2019-03-06T00:59:01.137Z,70.50
2019-03-06T01:01:30.202Z,70.10
2019-03-06T01:03:59.607Z,69.80
2019-03-06T01:06:28.813Z,70.90
2019-03-06T01:08:58.640Z,70.90
2019-03-06T01:11:28.290Z,71.00
2019-03-06T01:13:57.350Z,70.40
2019-03-06T01:16:26.395Z,71.60
2019-03-06T01:18:55.751Z,70.50
2019-03-06T01:21:24.816Z,70.70
2019-03-06T01:23:53.890Z,71.70
2019-03-06T01:26:22.925Z,71.10
2019-03-06T01:28:52.369Z,70.90
2019-03-06T01:31:21.705Z,71.70
2019-03-06T01:34:19.420Z,71.50
2019-03-06T01:37:14.141Z,71.10
2019-03-06T01:40:00.036Z,72.40
2019-03-06T01:42:42.630Z,71.30
2019-03-06T01:45:12.481Z,71.60
2019-03-06T01:47:41.531Z,71.90
2019-03-06T01:50:13.302Z,72.00
2019-03-06T01:52:42.695Z,72.10
2019-03-06T01:55:13.934Z,71.70
2019-03-06T01:57:43.564Z,72.10
2019-03-06T02:00:16.543Z,72.70
2019-03-06T02:02:45.672Z,73.70
2019-03-06T02:05:14.937Z,73.80
2019-03-06T02:07:44.027Z,73.90
2019-03-06T02:10:13.507Z,73.70
2019-03-06T02:12:42.543Z,75.10
2019-03-06T02:15:13.651Z,74.00
2019-03-06T02:17:42.730Z,74.10
2019-03-06T02:20:13.720Z,73.60
2019-03-06T02:22:43.070Z,73.40
2019-03-06T02:25:13.055Z,73.50
2019-03-06T02:27:42.999Z,73.10
2019-03-06T02:30:14.742Z,72.90
2019-03-06T02:32:44.109Z,73.60
2019-03-06T02:35:13.604Z,73.00
2019-03-06T02:37:42.661Z,72.90
2019-03-06T02:40:13.001Z,72.90
2019-03-06T02:42:42.430Z,72.90
2019-03-06T02:45:12.810Z,72.60
2019-03-06T02:47:41.864Z,72.40
2019-03-06T02:50:12.318Z,72.20
2019-03-06T02:52:41.969Z,72.20
2019-03-06T02:55:11.456Z,72.10
2019-03-06T02:57:45.040Z,72.10
2019-03-06T03:00:37.362Z,72.60
2019-03-06T03:09:20.748Z,72.70
2019-03-06T03:12:44.282Z,73.80
2019-03-06T03:18:55.610Z,73.50
2019-03-06T03:25:06.706Z,74.30
2019-03-06T03:28:29.680Z,74.10
2019-03-06T03:34:40.708Z,74.00
2019-03-06T03:40:50.721Z,73.60
2019-03-06T03:44:13.824Z,73.80
2019-03-06T03:50:24.379Z,74.70
2019-03-06T03:56:34.712Z,74.40
2019-03-06T04:02:45.276Z,74.40
2019-03-06T04:05:15.747Z,74.70
2019-03-06T04:07:44.793Z,74.60
2019-03-06T04:10:13.999Z,76.30
2019-03-06T04:12:43.049Z,74.80
2019-03-06T04:15:11.076Z,74.70
2019-03-06T04:21:21.555Z,75.40
2019-03-06T04:24:44.639Z,75.10
2019-03-06T04:30:55.081Z,75.60
2019-03-06T04:37:05.696Z,75.90
2019-03-06T04:43:15.998Z,77.30
2019-03-06T04:49:26.472Z,77.20
2019-03-06T04:52:49.588Z,76.70
2019-03-06T04:59:00.093Z,76.40
2019-03-06T05:02:23.107Z,77.00
2019-03-06T05:08:34.095Z,77.50
2019-03-06T05:14:44.795Z,77.30
2019-03-06T05:17:42.009Z,76.70
2019-03-06T05:20:11.149Z,76.60
2019-03-06T05:22:40.490Z,76.90
2019-03-06T05:25:09.931Z,77.80
2019-03-06T05:27:39.292Z,77.10
2019-03-06T05:30:09.678Z,77.70
2019-03-06T05:32:39.000Z,77.00
2019-03-06T05:35:44.164Z,77.30
2019-03-06T05:38:16.621Z,77.60
2019-03-06T05:40:46.182Z,77.10
2019-03-06T05:43:15.977Z,77.70
2019-03-06T05:45:45.721Z,77.10
2019-03-06T05:48:15.410Z,77.70
2019-03-06T05:50:44.522Z,77.00
2019-03-06T05:53:13.591Z,78.20
2019-03-06T05:55:42.659Z,77.80
2019-03-06T05:58:11.980Z,77.60
2019-03-06T06:00:41.422Z,78.10
2019-03-06T06:03:10.808Z,77.40
2019-03-06T06:05:41.371Z,78.40
2019-03-06T06:08:10.433Z,77.40
2019-03-06T06:10:39.505Z,78.00
2019-03-06T06:13:08.638Z,77.20
2019-03-06T06:15:37.717Z,77.00
2019-03-06T06:18:07.238Z,77.40
2019-03-06T06:20:36.355Z,77.30
2019-03-06T06:23:11.170Z,77.10
2019-03-06T06:25:40.242Z,77.30
2019-03-06T06:28:09.651Z,77.30
2019-03-06T06:30:39.159Z,77.90
2019-03-06T06:33:08.394Z,76.80
2019-03-06T06:35:38.499Z,77.10
2019-03-06T06:38:07.858Z,77.50
2019-03-06T06:40:36.965Z,77.60
2019-03-06T06:43:06.667Z,77.00
2019-03-06T06:45:36.357Z,77.90
2019-03-06T06:48:13.515Z,78.10
2019-03-06T06:51:07.013Z,78.50
2019-03-06T06:54:02.876Z,78.10
2019-03-06T06:57:30.067Z,78.80
2019-03-06T07:00:58.126Z,78.70
2019-03-06T07:04:19.569Z,78.90
2019-03-06T07:07:10.029Z,78.20
2019-03-06T07:09:54.634Z,78.60
2019-03-06T07:12:52.044Z,79.10
2019-03-06T07:15:39.015Z,78.50
2019-03-06T07:18:27.138Z,78.70
2019-03-06T07:21:03.408Z,78.10
2019-03-06T07:23:41.729Z,78.60
2019-03-06T07:26:48.032Z,78.90
2019-03-06T07:29:24.244Z,78.30
2019-03-06T07:32:12.380Z,77.80
2019-03-06T07:35:06.366Z,77.70
2019-03-06T07:37:45.076Z,76.60
2019-03-06T07:40:23.413Z,76.20
2019-03-06T07:43:00.485Z,74.70
2019-03-06T07:46:13.042Z,73.90
2019-03-06T07:49:16.687Z,73.80
2019-03-06T07:52:12.341Z,72.40
2019-03-06T07:55:19.240Z,72.20
2019-03-06T07:58:24.087Z,71.00
2019-03-06T08:00:53.483Z,70.30
2019-03-06T08:03:37.674Z,68.50
2019-03-06T08:06:06.832Z,68.50
2019-03-06T08:08:36.692Z,67.90
2019-03-06T08:11:11.503Z,67.90
2019-03-06T08:13:47.239Z,68.10
2019-03-06T08:16:35.458Z,67.50
2019-03-06T08:19:14.971Z,67.20
2019-03-06T08:22:09.376Z,66.50
2019-03-06T08:24:51.332Z,65.30
2019-03-06T08:27:20.439Z,66.10
2019-03-06T08:29:49.823Z,64.40
2019-03-06T08:32:37.009Z,65.50
2019-03-06T08:35:08.087Z,64.90
2019-03-06T08:37:37.487Z,65.20
2019-03-06T08:40:07.372Z,64.80
2019-03-06T08:42:36.426Z,64.00
2019-03-06T08:45:07.375Z,64.80
2019-03-06T08:48:07.798Z,63.30
2019-03-06T08:50:45.821Z,63.50
2019-03-06T08:53:19.717Z,63.80
2019-03-06T08:56:11.147Z,63.80
2019-03-06T08:59:02.467Z,64.00
2019-03-06T09:01:49.153Z,63.90
2019-03-06T09:04:26.351Z,63.50
2019-03-06T09:07:17.850Z,63.20
2019-03-06T09:10:21.375Z,62.90
2019-03-06T09:13:06.160Z,60.00
2019-03-06T09:15:53.162Z,60.80
2019-03-06T09:18:44.046Z,60.50
2019-03-06T09:21:19.209Z,57.40
2019-03-06T09:24:11.515Z,58.50
2019-03-06T09:27:02.488Z,55.10
2019-03-06T09:29:43.656Z,56.10
2019-03-06T09:32:34.787Z,54.40
2019-03-06T09:35:21.631Z,54.50
2019-03-06T09:38:11.261Z,55.10
2019-03-06T09:40:59.931Z,54.00
2019-03-06T09:43:36.023Z,52.10
2019-03-06T09:46:12.317Z,51.00
2019-03-06T09:48:49.970Z,50.10
2019-03-06T09:51:37.296Z,49.70
2019-03-06T09:54:25.541Z,49.60
2019-03-06T09:57:32.283Z,48.60
2019-03-06T10:00:33.061Z,50.00
2019-03-06T10:03:33.306Z,50.60
2019-03-06T10:06:27.570Z,51.30
2019-03-06T10:09:05.395Z,51.70
2019-03-06T10:11:56.520Z,52.00
2019-03-06T10:14:50.663Z,53.30
2019-03-06T10:17:37.818Z,55.30
2019-03-06T10:20:11.080Z,53.60
2019-03-06T10:22:40.163Z,53.10
2019-03-06T10:25:09.283Z,53.30
2019-03-06T10:27:38.758Z,52.80
2019-03-06T10:30:11.780Z,51.60
2019-03-06T10:32:41.132Z,51.90
2019-03-06T10:35:12.096Z,48.90
2019-03-06T10:37:42.106Z,49.40
2019-03-06T10:40:14.051Z,49.70
2019-03-06T10:42:43.177Z,50.50
2019-03-06T10:45:12.831Z,50.60
2019-03-06T10:47:42.370Z,48.50
2019-03-06T10:50:13.676Z,48.50
2019-03-06T10:52:42.759Z,48.60
2019-03-06T10:55:13.419Z,50.30
2019-03-06T10:57:42.477Z,51.00
2019-03-06T11:00:20.098Z,50.70
2019-03-06T11:02:49.438Z,50.90
2019-03-06T11:05:24.429Z,50.50
2019-03-06T11:07:54.829Z,51.50
2019-03-06T11:10:25.991Z,51.10
2019-03-06T11:12:57.028Z,49.50
2019-03-06T11:15:26.462Z,49.50
2019-03-06T11:17:55.679Z,49.80
2019-03-06T11:20:28.223Z,51.10
2019-03-06T11:22:58.654Z,50.10
2019-03-06T11:25:29.719Z,50.40
2019-03-06T11:27:58.787Z,48.50
2019-03-06T11:30:35.563Z,50.00
2019-03-06T11:33:05.980Z,50.30
2019-03-06T11:35:35.375Z,51.40
2019-03-06T11:38:05.411Z,50.50
2019-03-06T11:40:36.016Z,50.90
2019-03-06T11:43:06.708Z,51.80
2019-03-06T11:45:37.542Z,51.00
2019-03-06T11:48:06.922Z,51.60
2019-03-06T11:50:40.868Z,50.80
2019-03-06T11:53:07.836Z,51.10
2019-03-06T11:55:37.708Z,50.80
2019-03-06T11:58:08.876Z,50.30
2019-03-06T12:00:43.650Z,50.80
2019-03-06T12:03:13.480Z,50.60
2019-03-06T12:05:43.031Z,50.70
2019-03-06T12:08:14.353Z,51.10
2019-03-06T12:10:44.071Z,51.40
2019-03-06T12:13:15.144Z,51.80
2019-03-06T12:15:46.741Z,51.40
2019-03-06T12:18:19.509Z,51.60
2019-03-06T12:20:48.674Z,52.40
2019-03-06T12:23:18.179Z,52.40
2019-03-06T12:25:47.236Z,51.00
2019-03-06T12:28:17.037Z,51.50
2019-03-06T12:30:46.610Z,51.80
2019-03-06T12:33:19.955Z,50.80
2019-03-06T12:35:49.391Z,51.50
2019-03-06T12:38:18.493Z,51.90
2019-03-06T12:40:47.996Z,51.90
2019-03-06T12:43:17.374Z,51.30
2019-03-06T12:46:24.346Z,51.60
2019-03-06T12:49:14.889Z,51.30
2019-03-06T12:51:43.970Z,51.30
2019-03-06T12:54:13.034Z,48.90
2019-03-06T12:56:42.887Z,47.70
2019-03-06T12:59:12.324Z,48.90
2019-03-06T13:01:41.752Z,47.60
2019-03-06T13:04:11.585Z,47.70
2019-03-06T13:06:41.335Z,47.80
2019-03-06T13:09:28.927Z,48.40
2019-03-06T13:11:58.375Z,48.10
2019-03-06T13:14:30.336Z,47.00
2019-03-06T13:16:59.049Z,47.40
2019-03-06T13:19:28.130Z,46.50
2019-03-06T13:21:57.220Z,48.00
2019-03-06T13:24:27.022Z,48.30
2019-03-06T13:26:57.999Z,47.50
2019-03-06T13:29:27.430Z,47.80
2019-03-06T13:31:56.923Z,47.40
2019-03-06T13:34:30.063Z,48.00
2019-03-06T13:36:59.761Z,47.60
2019-03-06T13:39:28.831Z,46.00
2019-03-06T13:41:59.172Z,46.10
2019-03-06T13:44:28.261Z,47.20
2019-03-06T13:46:57.407Z,47.30
2019-03-06T13:49:26.563Z,46.90
2019-03-06T13:51:55.974Z,48.20
2019-03-06T13:54:25.117Z,48.10
2019-03-06T13:56:54.606Z,48.60
2019-03-06T13:59:24.877Z,47.80
2019-03-06T14:01:54.407Z,48.90
2019-03-06T14:04:23.489Z,48.80
2019-03-06T14:06:52.893Z,49.00
2019-03-06T14:09:21.955Z,48.60
2019-03-06T14:11:51.055Z,48.00
2019-03-06T14:14:20.512Z,48.60
2019-03-06T14:16:49.605Z,48.30
2019-03-06T14:19:19.010Z,48.30
2019-03-06T14:21:49.259Z,48.30
2019-03-06T14:24:19.891Z,48.70
2019-03-06T14:26:49.178Z,48.30
2019-03-06T14:29:18.238Z,48.20
2019-03-06T14:31:47.646Z,48.50
2019-03-06T14:34:16.745Z,48.50
2019-03-06T14:36:46.587Z,48.50
2019-03-06T14:39:27.575Z,48.70
2019-03-06T14:41:57.956Z,48.80
2019-03-06T14:44:27.458Z,49.10
2019-03-06T14:46:56.523Z,49.40
2019-03-06T14:49:25.638Z,49.20
2019-03-06T14:51:55.995Z,49.30
2019-03-06T15:19:16.920Z,50.20
2019-03-06T15:26:06.304Z,50.50
2019-03-06T15:28:35.405Z,50.30
2019-03-06T15:31:04.532Z,49.30
2019-03-06T15:33:33.615Z,49.30
2019-03-06T15:36:08.541Z,49.50
2019-03-06T15:38:38.152Z,49.70
2019-03-06T15:41:08.117Z,49.90
2019-03-06T15:43:37.709Z,49.50
2019-03-06T15:46:06.888Z,50.10
2019-03-06T15:48:36.471Z,50.10
2019-03-06T15:51:05.823Z,50.30
2019-03-06T15:53:36.191Z,50.10
2019-03-06T15:56:05.649Z,50.20
2019-03-06T15:58:35.500Z,50.70
2019-03-06T16:01:06.217Z,50.80
2019-03-06T16:03:36.020Z,50.70
2019-03-06T16:06:06.275Z,50.70
2019-03-06T16:08:35.452Z,50.80
2019-03-06T16:11:06.550Z,50.80
2019-03-06T16:13:35.924Z,50.90
2019-03-06T16:16:05.896Z,51.00
2019-03-06T16:18:36.268Z,51.20
2019-03-06T16:21:07.855Z,51.30
2019-03-06T16:23:37.041Z,51.20
2019-03-06T16:26:06.198Z,51.10
2019-03-06T16:28:35.928Z,51.20
2019-03-06T16:31:05.526Z,51.30
2019-03-06T16:33:34.650Z,51.30
2019-03-06T16:36:04.300Z,51.30
2019-03-06T16:38:33.723Z,51.30
2019-03-06T16:41:03.343Z,51.20
2019-03-06T16:43:33.057Z,51.50
2019-03-06T16:46:02.534Z,51.60
2019-03-06T16:48:31.829Z,51.60
2019-03-06T16:51:01.983Z,51.80
2019-03-06T16:53:31.999Z,51.80
2019-03-06T16:56:01.963Z,52.00
2019-03-06T16:58:31.194Z,52.00
2019-03-06T17:01:02.717Z,52.20
2019-03-06T17:03:32.315Z,52.30
2019-03-06T17:06:02.163Z,52.60
2019-03-06T17:08:31.247Z,52.70
2019-03-06T17:11:00.691Z,52.80
2019-03-06T17:13:29.835Z,53.00
2019-03-06T17:15:59.521Z,53.20
2019-03-06T17:18:29.483Z,53.60
2019-03-06T17:20:58.600Z,53.60
2019-03-06T17:23:27.984Z,53.70
2019-03-06T17:25:57.908Z,53.60
2019-03-06T17:28:27.894Z,53.90
2019-03-06T17:30:57.722Z,54.20
2019-03-06T17:33:26.793Z,54.20
2019-03-06T17:35:56.256Z,54.50
2019-03-06T17:38:25.433Z,54.40
2019-03-06T17:40:54.819Z,54.50
2019-03-06T17:43:24.672Z,54.60
2019-03-06T17:45:53.833Z,54.60
2019-03-06T17:48:23.702Z,54.70
2019-03-06T17:50:53.111Z,54.80
2019-03-06T17:53:22.553Z,54.90
2019-03-06T17:55:53.019Z,54.70
2019-03-06T17:58:22.310Z,55.00
2019-03-06T18:00:54.387Z,55.50
2019-03-06T18:03:36.023Z,55.10
2019-03-06T18:06:05.225Z,55.70
2019-03-06T18:08:36.016Z,55.20
2019-03-06T18:11:07.142Z,55.20
2019-03-06T18:13:36.571Z,55.50
2019-03-06T18:16:05.959Z,55.30
2019-03-06T18:18:35.052Z,55.50
2019-03-06T18:21:04.448Z,55.70
2019-03-06T18:23:34.439Z,55.70
2019-03-06T18:26:06.003Z,55.60
2019-03-06T18:28:35.219Z,55.60
2019-03-06T18:31:04.823Z,55.90
2019-03-06T18:33:33.892Z,55.80
2019-03-06T18:36:03.501Z,55.60
2019-03-06T18:38:33.325Z,55.70
2019-03-06T18:41:02.839Z,55.80
2019-03-06T18:43:32.263Z,56.00
2019-03-06T18:46:02.787Z,56.00
2019-03-06T18:48:32.544Z,56.00
2019-03-06T18:51:03.067Z,56.00
2019-03-06T18:53:32.220Z,56.00
2019-03-06T18:56:01.390Z,56.10
2019-03-06T18:58:31.136Z,56.20
2019-03-06T19:01:00.950Z,56.20
2019-03-06T19:03:31.011Z,56.50
2019-03-06T19:06:00.976Z,56.70
2019-03-06T19:08:31.573Z,56.80
2019-03-06T19:11:00.951Z,56.70
2019-03-06T19:13:30.309Z,57.10
2019-03-06T19:15:59.472Z,57.20
2019-03-06T19:18:29.292Z,57.20
2019-03-06T19:20:58.952Z,57.30
2019-03-06T19:23:28.437Z,57.40
2019-03-06T19:25:58.139Z,57.30
2019-03-06T19:28:27.604Z,57.80
2019-03-06T19:30:58.076Z,57.70
2019-03-06T19:33:27.319Z,58.00
2019-03-06T19:35:57.214Z,57.60
2019-03-06T19:38:26.648Z,57.80
2019-03-06T19:40:56.104Z,58.40
2019-03-06T19:43:25.489Z,58.30
2019-03-06T19:45:54.907Z,58.00
2019-03-06T19:48:25.552Z,57.90
2019-03-06T19:50:55.744Z,58.30
2019-03-06T19:53:25.136Z,58.50
2019-03-06T19:55:54.614Z,58.10
2019-03-06T19:58:24.091Z,58.40
2019-03-06T20:00:54.096Z,58.40
2019-03-06T20:03:24.115Z,58.80
2019-03-06T20:05:54.042Z,58.40
2019-03-06T20:08:23.525Z,58.50
2019-03-06T20:10:53.067Z,58.40
2019-03-06T20:13:23.398Z,58.50
2019-03-06T20:15:53.256Z,58.60
2019-03-06T20:18:23.680Z,58.60
2019-03-06T20:20:53.550Z,58.60
2019-03-06T20:23:22.983Z,58.70
2019-03-06T20:25:53.128Z,58.50
2019-03-06T20:28:22.981Z,58.50
2019-03-06T20:30:52.483Z,58.70
2019-03-06T20:33:22.893Z,58.60
2019-03-06T20:35:52.285Z,58.70
2019-03-06T20:38:21.400Z,58.80
2019-03-06T20:40:51.486Z,58.80
2019-03-06T20:43:21.319Z,58.80
2019-03-06T20:45:51.111Z,59.10
2019-03-06T20:48:20.778Z,59.10
2019-03-06T20:50:54.477Z,58.80
2019-03-06T20:53:23.639Z,59.00
2019-03-06T20:55:53.143Z,59.10
2019-03-06T20:58:22.743Z,59.40
2019-03-06T21:00:52.442Z,59.10
2019-03-06T21:03:21.770Z,59.50
2019-03-06T21:05:51.254Z,59.20
2019-03-06T21:08:21.079Z,59.10
2019-03-06T21:10:51.653Z,59.20
2019-03-06T21:13:21.085Z,59.40
2019-03-06T21:15:50.655Z,59.60
2019-03-06T21:18:20.074Z,59.60
2019-03-06T21:20:49.932Z,59.00
2019-03-06T21:23:19.572Z,59.40
2019-03-06T21:25:48.912Z,59.40
2019-03-06T21:28:19.282Z,59.50
2019-03-06T21:30:48.447Z,59.50
2019-03-06T21:33:18.189Z,59.80
2019-03-06T21:35:47.749Z,59.70
2019-03-06T21:38:17.179Z,59.80
2019-03-06T21:40:46.714Z,59.90
2019-03-06T21:43:15.785Z,60.80
2019-03-06T21:45:45.292Z,60.30
2019-03-06T21:48:14.769Z,60.40
2019-03-06T21:50:44.835Z,60.50
2019-03-06T21:53:14.442Z,60.50
2019-03-06T21:55:43.555Z,60.20
2019-03-06T21:58:12.999Z,60.70
2019-03-06T22:00:42.256Z,61.80
2019-03-06T22:03:12.063Z,62.30
2019-03-06T22:05:41.219Z,62.30
2019-03-06T22:08:10.832Z,62.10
2019-03-06T22:10:40.265Z,62.40
2019-03-06T22:13:09.346Z,62.80
2019-03-06T22:15:39.495Z,62.50
2019-03-06T22:18:09.911Z,62.30
2019-03-06T22:20:40.513Z,62.40
2019-03-06T22:23:09.901Z,61.90
2019-03-06T22:25:39.077Z,60.90
2019-03-06T22:28:08.242Z,60.60
2019-03-06T22:30:37.621Z,60.80
2019-03-06T22:33:07.435Z,61.30
2019-03-06T22:35:36.541Z,60.30
2019-03-06T22:38:06.559Z,60.40
2019-03-06T22:40:37.074Z,61.00
2019-03-06T22:43:07.285Z,62.10
2019-03-06T22:45:36.718Z,62.50
2019-03-06T22:48:06.104Z,62.20
2019-03-06T22:50:35.470Z,62.20
2019-03-06T22:53:05.288Z,62.20
2019-03-06T22:55:35.055Z,62.10
2019-03-06T22:58:04.434Z,62.30
2019-03-06T23:01:00.563Z,62.40
2019-03-06T23:03:31.173Z,62.70
2019-03-06T23:06:01.496Z,62.80
2019-03-06T23:08:31.199Z,63.00
2019-03-06T23:11:00.703Z,63.10
2019-03-06T23:13:30.135Z,62.90
2019-03-06T23:15:59.507Z,62.50
2019-03-06T23:18:28.628Z,62.50
2019-03-06T23:20:57.700Z,61.20
2019-03-06T23:23:27.118Z,61.10
2019-03-06T23:25:56.555Z,61.00
2019-03-06T23:28:26.065Z,60.80
2019-03-06T23:30:55.536Z,60.70
2019-03-06T23:33:25.074Z,61.00
2019-03-06T23:35:54.159Z,60.80
2019-03-06T23:38:23.389Z,60.90
2019-03-06T23:40:52.744Z,61.30
2019-03-06T23:43:21.932Z,61.50
2019-03-06T23:45:51.005Z,62.20
2019-03-06T23:48:22.277Z,62.50
2019-03-06T23:50:51.415Z,62.80
2019-03-06T23:53:31.747Z,62.60
2019-03-06T23:56:01.153Z,62.80
2019-03-06T23:58:30.276Z,62.50
